Bauru, Brazil
Current Conditions -  °F | °C
As of 8:00 AM on Thursday 23 Oct 2014 (Local Time) from SBBU Reporting Station
Broken Clouds Broken Clouds  
Wind Chill: 64°   Ceiling: 5000
Heat Index: 64°   Visibility: 6mi
Dew Point: 61°   Wind: 15mph
Humidity: 88%   Direction: 140°SE
Pressure: 30.12"   Gusts: NA
Location:  22.33°S, 49.08°W
Report Text: SBBU 231000Z 14013KT 9999 FEW030 BKN050 18/16 Q1020
Loading
Personal Weather Stations






























Interactive Weather Map
Tropical Storm Tracking
New forecast layout! Learn more

10-Day Weather Forecast

Advertisements
Track Severe Weather on mobile